sensor_id;sensor_type;location;lat;lon;timestamp;temperature;humidity
23289;DHT22;11813;50.834;4.280;2024-02-26T00:01:59;8.50;99.90
23289;DHT22;11813;50.834;4.280;2024-02-26T00:04:24;8.40;99.90
23289;DHT22;11813;50.834;4.280;2024-02-26T00:06:50;8.40;99.90
23289;DHT22;11813;50.834;4.280;2024-02-26T00:09:16;8.30;99.90
23289;DHT22;11813;50.834;4.280;2024-02-26T00:11:42;8.30;99.90
23289;DHT22;11813;50.834;4.280;2024-02-26T00:14:07;8.40;99.90
23289;DHT22;11813;50.834;4.280;2024-02-26T00:16:33;8.40;99.90
23289;DHT22;11813;50.834;4.280;2024-02-26T00:18:59;8.30;99.90
23289;DHT22;11813;50.834;4.280;2024-02-26T00:21:24;8.20;99.90
23289;DHT22;11813;50.834;4.280;2024-02-26T00:23:50;8.20;99.90
23289;DHT22;11813;50.834;4.280;2024-02-26T00:26:16;8.30;99.90
23289;DHT22;11813;50.834;4.280;2024-02-26T00:28:42;8.20;99.90
23289;DHT22;11813;50.834;4.280;2024-02-26T00:31:07;8.30;99.90
23289;DHT22;11813;50.834;4.280;2024-02-26T00:33:33;8.20;99.90
23289;DHT22;11813;50.834;4.280;2024-02-26T00:35:58;8.10;99.90
23289;DHT22;11813;50.834;4.280;2024-02-26T00:38:24;8.10;99.90
23289;DHT22;11813;50.834;4.280;2024-02-26T00:40:49;8.10;99.90
23289;DHT22;11813;50.834;4.280;2024-02-26T00:43:15;8.10;99.90
23289;DHT22;11813;50.834;4.280;2024-02-26T00:45:41;8.10;99.90
23289;DHT22;11813;50.834;4.280;2024-02-26T00:48:06;8.10;99.90
23289;DHT22;11813;50.834;4.280;2024-02-26T00:50:33;8.10;99.90
23289;DHT22;11813;50.834;4.280;2024-02-26T00:52:59;8.20;99.90
23289;DHT22;11813;50.834;4.280;2024-02-26T00:55:24;8.10;99.90
23289;DHT22;11813;50.834;4.280;2024-02-26T00:57:50;8.20;99.90
23289;DHT22;11813;50.834;4.280;2024-02-26T01:00:16;8.20;99.90
23289;DHT22;11813;50.834;4.280;2024-02-26T01:02:41;8.20;99.90
23289;DHT22;11813;50.834;4.280;2024-02-26T01:05:08;8.20;99.90
23289;DHT22;11813;50.834;4.280;2024-02-26T01:07:37;8.20;99.90
23289;DHT22;11813;50.834;4.280;2024-02-26T01:10:03;8.20;99.90
23289;DHT22;11813;50.834;4.280;2024-02-26T01:12:29;8.20;99.90
23289;DHT22;11813;50.834;4.280;2024-02-26T01:14:55;8.30;99.90
23289;DHT22;11813;50.834;4.280;2024-02-26T01:17:20;8.20;99.90
23289;DHT22;11813;50.834;4.280;2024-02-26T01:19:46;8.10;99.90
23289;DHT22;11813;50.834;4.280;2024-02-26T01:22:12;8.10;99.90
23289;DHT22;11813;50.834;4.280;2024-02-26T01:24:37;8.10;99.90
23289;DHT22;11813;50.834;4.280;2024-02-26T01:27:03;8.00;99.90
23289;DHT22;11813;50.834;4.280;2024-02-26T01:29:29;7.90;99.90
23289;DHT22;11813;50.834;4.280;2024-02-26T01:31:54;7.90;99.90
23289;DHT22;11813;50.834;4.280;2024-02-26T01:34:20;7.80;99.90
23289;DHT22;11813;50.834;4.280;2024-02-26T01:36:46;7.90;99.90
23289;DHT22;11813;50.834;4.280;2024-02-26T01:39:11;7.90;99.90
23289;DHT22;11813;50.834;4.280;2024-02-26T01:41:41;7.90;99.90
23289;DHT22;11813;50.834;4.280;2024-02-26T01:44:06;8.00;99.90
23289;DHT22;11813;50.834;4.280;2024-02-26T01:46:34;8.00;99.90
23289;DHT22;11813;50.834;4.280;2024-02-26T01:49:01;8.10;99.90
23289;DHT22;11813;50.834;4.280;2024-02-26T01:51:28;8.00;99.90
23289;DHT22;11813;50.834;4.280;2024-02-26T01:53:54;8.00;99.90
23289;DHT22;11813;50.834;4.280;2024-02-26T01:56:21;7.90;99.90
23289;DHT22;11813;50.834;4.280;2024-02-26T01:58:48;8.00;99.90
23289;DHT22;11813;50.834;4.280;2024-02-26T02:01:15;8.00;99.90
23289;DHT22;11813;50.834;4.280;2024-02-26T02:03:44;8.00;99.90
23289;DHT22;11813;50.834;4.280;2024-02-26T02:06:11;8.00;99.90
23289;DHT22;11813;50.834;4.280;2024-02-26T02:08:38;8.10;99.90
23289;DHT22;11813;50.834;4.280;2024-02-26T02:11:04;8.00;99.90
23289;DHT22;11813;50.834;4.280;2024-02-26T02:13:30;8.00;99.90
23289;DHT22;11813;50.834;4.280;2024-02-26T02:15:55;8.00;99.90
23289;DHT22;11813;50.834;4.280;2024-02-26T02:18:21;7.90;99.90
23289;DHT22;11813;50.834;4.280;2024-02-26T02:20:46;7.90;99.90
23289;DHT22;11813;50.834;4.280;2024-02-26T02:23:12;8.00;99.90
23289;DHT22;11813;50.834;4.280;2024-02-26T02:25:38;7.90;99.90
23289;DHT22;11813;50.834;4.280;2024-02-26T02:28:04;7.80;99.90
23289;DHT22;11813;50.834;4.280;2024-02-26T02:30:31;7.90;99.90
23289;DHT22;11813;50.834;4.280;2024-02-26T02:32:57;7.80;99.90
23289;DHT22;11813;50.834;4.280;2024-02-26T02:35:24;7.80;99.90
23289;DHT22;11813;50.834;4.280;2024-02-26T02:37:52;7.80;99.90
23289;DHT22;11813;50.834;4.280;2024-02-26T02:40:17;7.90;99.90
23289;DHT22;11813;50.834;4.280;2024-02-26T02:42:43;7.90;99.90
23289;DHT22;11813;50.834;4.280;2024-02-26T02:45:09;7.90;99.90
23289;DHT22;11813;50.834;4.280;2024-02-26T02:47:38;7.90;99.90
23289;DHT22;11813;50.834;4.280;2024-02-26T02:50:04;7.80;99.90
23289;DHT22;11813;50.834;4.280;2024-02-26T02:52:30;7.80;99.90
23289;DHT22;11813;50.834;4.280;2024-02-26T02:54:56;7.90;99.90
23289;DHT22;11813;50.834;4.280;2024-02-26T02:57:22;7.90;99.90
23289;DHT22;11813;50.834;4.280;2024-02-26T02:59:47;7.80;99.90
23289;DHT22;11813;50.834;4.280;2024-02-26T03:02:13;7.80;99.90
23289;DHT22;11813;50.834;4.280;2024-02-26T03:04:38;7.80;99.90
23289;DHT22;11813;50.834;4.280;2024-02-26T03:07:04;7.70;99.90
23289;DHT22;11813;50.834;4.280;2024-02-26T03:09:30;7.70;99.90
23289;DHT22;11813;50.834;4.280;2024-02-26T03:11:55;7.70;99.90
23289;DHT22;11813;50.834;4.280;2024-02-26T03:14:21;7.70;99.90
23289;DHT22;11813;50.834;4.280;2024-02-26T03:16:46;7.80;99.90
23289;DHT22;11813;50.834;4.280;2024-02-26T03:19:15;7.80;99.90
23289;DHT22;11813;50.834;4.280;2024-02-26T03:21:41;7.90;99.90
23289;DHT22;11813;50.834;4.280;2024-02-26T03:24:07;8.00;99.90
23289;DHT22;11813;50.834;4.280;2024-02-26T03:26:36;7.90;99.90
23289;DHT22;11813;50.834;4.280;2024-02-26T03:29:01;7.80;99.90
23289;DHT22;11813;50.834;4.280;2024-02-26T03:31:28;7.80;99.90
23289;DHT22;11813;50.834;4.280;2024-02-26T03:33:54;7.80;99.90
23289;DHT22;11813;50.834;4.280;2024-02-26T03:36:19;7.80;99.90
23289;DHT22;11813;50.834;4.280;2024-02-26T03:38:47;7.70;99.90
23289;DHT22;11813;50.834;4.280;2024-02-26T03:41:12;7.70;99.90
23289;DHT22;11813;50.834;4.280;2024-02-26T03:43:38;7.80;99.90
23289;DHT22;11813;50.834;4.280;2024-02-26T03:46:04;7.80;99.90
23289;DHT22;11813;50.834;4.280;2024-02-26T03:48:32;7.70;99.90
23289;DHT22;11813;50.834;4.280;2024-02-26T03:50:57;7.60;99.90
23289;DHT22;11813;50.834;4.280;2024-02-26T03:53:23;7.60;99.90
23289;DHT22;11813;50.834;4.280;2024-02-26T03:55:48;7.50;99.90
23289;DHT22;11813;50.834;4.280;2024-02-26T03:58:14;7.60;99.90
23289;DHT22;11813;50.834;4.280;2024-02-26T04:00:42;7.60;99.90
23289;DHT22;11813;50.834;4.280;2024-02-26T04:03:08;7.60;99.90
23289;DHT22;11813;50.834;4.280;2024-02-26T04:05:34;7.60;99.90
23289;DHT22;11813;50.834;4.280;2024-02-26T04:07:59;7.60;99.90
23289;DHT22;11813;50.834;4.280;2024-02-26T04:10:25;7.50;99.90
23289;DHT22;11813;50.834;4.280;2024-02-26T04:12:50;7.60;99.90
23289;DHT22;11813;50.834;4.280;2024-02-26T04:15:16;7.60;99.90
23289;DHT22;11813;50.834;4.280;2024-02-26T04:17:42;7.60;99.90
23289;DHT22;11813;50.834;4.280;2024-02-26T04:20:12;7.70;99.90
23289;DHT22;11813;50.834;4.280;2024-02-26T04:22:38;7.60;99.90
23289;DHT22;11813;50.834;4.280;2024-02-26T04:25:04;7.60;99.90
23289;DHT22;11813;50.834;4.280;2024-02-26T04:27:29;7.60;99.90
23289;DHT22;11813;50.834;4.280;2024-02-26T04:29:55;7.50;99.90
23289;DHT22;11813;50.834;4.280;2024-02-26T04:32:20;7.40;99.90
23289;DHT22;11813;50.834;4.280;2024-02-26T04:34:46;7.50;99.90
23289;DHT22;11813;50.834;4.280;2024-02-26T04:37:11;7.50;99.90
23289;DHT22;11813;50.834;4.280;2024-02-26T04:39:37;7.40;99.90
23289;DHT22;11813;50.834;4.280;2024-02-26T04:42:03;7.40;99.90
23289;DHT22;11813;50.834;4.280;2024-02-26T04:44:29;7.40;99.90
23289;DHT22;11813;50.834;4.280;2024-02-26T04:46:55;7.40;99.90
23289;DHT22;11813;50.834;4.280;2024-02-26T04:49:21;7.40;99.90
23289;DHT22;11813;50.834;4.280;2024-02-26T04:51:46;7.40;99.90
23289;DHT22;11813;50.834;4.280;2024-02-26T04:54:13;7.40;99.90
23289;DHT22;11813;50.834;4.280;2024-02-26T04:56:39;7.50;99.90
23289;DHT22;11813;50.834;4.280;2024-02-26T04:59:04;7.40;99.90
23289;DHT22;11813;50.834;4.280;2024-02-26T05:01:30;7.30;99.90
23289;DHT22;11813;50.834;4.280;2024-02-26T05:03:55;7.30;99.90
23289;DHT22;11813;50.834;4.280;2024-02-26T05:06:21;7.20;99.90
23289;DHT22;11813;50.834;4.280;2024-02-26T05:08:47;7.10;99.90
23289;DHT22;11813;50.834;4.280;2024-02-26T05:11:12;7.10;99.90
23289;DHT22;11813;50.834;4.280;2024-02-26T05:13:38;7.10;99.90
23289;DHT22;11813;50.834;4.280;2024-02-26T05:16:03;7.20;99.90
23289;DHT22;11813;50.834;4.280;2024-02-26T05:18:29;7.20;99.90
23289;DHT22;11813;50.834;4.280;2024-02-26T05:20:55;7.40;99.90
23289;DHT22;11813;50.834;4.280;2024-02-26T05:23:20;7.40;99.90
23289;DHT22;11813;50.834;4.280;2024-02-26T05:25:46;7.40;99.90
23289;DHT22;11813;50.834;4.280;2024-02-26T05:28:13;7.50;99.90
23289;DHT22;11813;50.834;4.280;2024-02-26T05:30:41;7.40;99.90
23289;DHT22;11813;50.834;4.280;2024-02-26T05:33:07;7.30;99.90
23289;DHT22;11813;50.834;4.280;2024-02-26T05:35:33;7.30;99.90
23289;DHT22;11813;50.834;4.280;2024-02-26T05:37:58;7.40;99.90
23289;DHT22;11813;50.834;4.280;2024-02-26T05:40:24;7.30;99.90
23289;DHT22;11813;50.834;4.280;2024-02-26T05:42:49;7.30;99.90
23289;DHT22;11813;50.834;4.280;2024-02-26T05:45:15;7.30;99.90
23289;DHT22;11813;50.834;4.280;2024-02-26T05:47:41;7.30;99.90
23289;DHT22;11813;50.834;4.280;2024-02-26T05:50:11;7.20;99.90
23289;DHT22;11813;50.834;4.280;2024-02-26T05:52:37;7.20;99.90
23289;DHT22;11813;50.834;4.280;2024-02-26T05:55:06;7.10;99.90
23289;DHT22;11813;50.834;4.280;2024-02-26T05:57:33;7.20;99.90
23289;DHT22;11813;50.834;4.280;2024-02-26T05:59:59;7.20;99.90
23289;DHT22;11813;50.834;4.280;2024-02-26T06:02:32;7.20;99.90
23289;DHT22;11813;50.834;4.280;2024-02-26T06:04:58;7.20;99.90
23289;DHT22;11813;50.834;4.280;2024-02-26T06:07:24;7.20;99.90
23289;DHT22;11813;50.834;4.280;2024-02-26T06:09:50;7.20;99.90
23289;DHT22;11813;50.834;4.280;2024-02-26T06:12:15;7.20;99.90
23289;DHT22;11813;50.834;4.280;2024-02-26T06:14:44;7.10;99.90
23289;DHT22;11813;50.834;4.280;2024-02-26T06:17:09;7.10;99.90
23289;DHT22;11813;50.834;4.280;2024-02-26T06:19:35;7.10;99.90
23289;DHT22;11813;50.834;4.280;2024-02-26T06:22:00;7.20;99.90
23289;DHT22;11813;50.834;4.280;2024-02-26T06:24:26;7.10;99.90
23289;DHT22;11813;50.834;4.280;2024-02-26T06:26:51;7.10;99.90
23289;DHT22;11813;50.834;4.280;2024-02-26T06:29:17;7.20;99.90
23289;DHT22;11813;50.834;4.280;2024-02-26T06:31:43;7.20;99.90
23289;DHT22;11813;50.834;4.280;2024-02-26T06:34:08;7.30;99.90
23289;DHT22;11813;50.834;4.280;2024-02-26T06:36:34;7.20;99.90
23289;DHT22;11813;50.834;4.280;2024-02-26T06:39:00;7.10;99.90
23289;DHT22;11813;50.834;4.280;2024-02-26T06:41:26;7.10;99.90
23289;DHT22;11813;50.834;4.280;2024-02-26T06:43:54;7.10;99.90
23289;DHT22;11813;50.834;4.280;2024-02-26T06:46:19;7.20;99.90
23289;DHT22;11813;50.834;4.280;2024-02-26T06:48:45;7.20;99.90
23289;DHT22;11813;50.834;4.280;2024-02-26T06:51:10;7.10;99.90
23289;DHT22;11813;50.834;4.280;2024-02-26T06:53:36;7.10;99.90
23289;DHT22;11813;50.834;4.280;2024-02-26T06:56:02;7.10;99.90
23289;DHT22;11813;50.834;4.280;2024-02-26T06:58:27;7.00;99.90
23289;DHT22;11813;50.834;4.280;2024-02-26T07:00:53;7.00;99.90
23289;DHT22;11813;50.834;4.280;2024-02-26T07:03:19;7.00;99.90
23289;DHT22;11813;50.834;4.280;2024-02-26T07:05:44;7.10;99.90
23289;DHT22;11813;50.834;4.280;2024-02-26T07:08:11;7.10;99.90
23289;DHT22;11813;50.834;4.280;2024-02-26T07:10:37;7.10;99.90
23289;DHT22;11813;50.834;4.280;2024-02-26T07:13:02;7.10;99.90
23289;DHT22;11813;50.834;4.280;2024-02-26T07:15:28;7.00;99.90
23289;DHT22;11813;50.834;4.280;2024-02-26T07:17:53;7.00;99.90
23289;DHT22;11813;50.834;4.280;2024-02-26T07:20:19;7.00;99.90
23289;DHT22;11813;50.834;4.280;2024-02-26T07:22:45;7.10;99.90
23289;DHT22;11813;50.834;4.280;2024-02-26T07:25:10;7.00;99.90
23289;DHT22;11813;50.834;4.280;2024-02-26T07:27:39;7.10;99.90
23289;DHT22;11813;50.834;4.280;2024-02-26T07:30:06;7.10;99.90
23289;DHT22;11813;50.834;4.280;2024-02-26T07:32:33;7.10;99.90
23289;DHT22;11813;50.834;4.280;2024-02-26T07:34:59;7.10;99.90
23289;DHT22;11813;50.834;4.280;2024-02-26T07:37:24;7.10;99.90
23289;DHT22;11813;50.834;4.280;2024-02-26T07:39:50;7.10;99.90
23289;DHT22;11813;50.834;4.280;2024-02-26T07:42:15;7.20;99.90
23289;DHT22;11813;50.834;4.280;2024-02-26T07:44:41;7.00;99.90
23289;DHT22;11813;50.834;4.280;2024-02-26T07:47:09;7.00;99.90
23289;DHT22;11813;50.834;4.280;2024-02-26T07:49:34;7.00;99.90
23289;DHT22;11813;50.834;4.280;2024-02-26T07:52:00;7.10;99.90
23289;DHT22;11813;50.834;4.280;2024-02-26T07:54:26;7.00;99.90
23289;DHT22;11813;50.834;4.280;2024-02-26T07:56:51;7.00;99.90
23289;DHT22;11813;50.834;4.280;2024-02-26T07:59:17;6.90;99.90
23289;DHT22;11813;50.834;4.280;2024-02-26T08:01:43;7.00;99.90
23289;DHT22;11813;50.834;4.280;2024-02-26T08:04:09;7.00;99.90
23289;DHT22;11813;50.834;4.280;2024-02-26T08:06:34;7.00;99.90
23289;DHT22;11813;50.834;4.280;2024-02-26T08:09:00;7.00;99.90
23289;DHT22;11813;50.834;4.280;2024-02-26T08:11:26;7.00;99.90
23289;DHT22;11813;50.834;4.280;2024-02-26T08:13:53;7.00;99.90
23289;DHT22;11813;50.834;4.280;2024-02-26T08:16:18;7.00;99.90
23289;DHT22;11813;50.834;4.280;2024-02-26T08:18:44;7.00;99.90
23289;DHT22;11813;50.834;4.280;2024-02-26T08:21:10;7.10;99.90
23289;DHT22;11813;50.834;4.280;2024-02-26T08:23:35;7.00;99.90
23289;DHT22;11813;50.834;4.280;2024-02-26T08:26:01;7.10;99.90
23289;DHT22;11813;50.834;4.280;2024-02-26T08:28:26;7.20;99.90
23289;DHT22;11813;50.834;4.280;2024-02-26T08:30:52;7.20;99.90
23289;DHT22;11813;50.834;4.280;2024-02-26T08:33:17;7.20;99.90
23289;DHT22;11813;50.834;4.280;2024-02-26T08:35:43;7.10;99.90
23289;DHT22;11813;50.834;4.280;2024-02-26T08:38:08;7.10;99.90
23289;DHT22;11813;50.834;4.280;2024-02-26T08:40:34;7.20;99.90
23289;DHT22;11813;50.834;4.280;2024-02-26T08:43:00;7.20;99.90
23289;DHT22;11813;50.834;4.280;2024-02-26T08:45:25;7.10;99.90
23289;DHT22;11813;50.834;4.280;2024-02-26T08:47:52;7.10;99.90
23289;DHT22;11813;50.834;4.280;2024-02-26T08:50:18;7.00;99.90
23289;DHT22;11813;50.834;4.280;2024-02-26T08:52:43;7.10;99.90
23289;DHT22;11813;50.834;4.280;2024-02-26T08:55:11;7.10;99.90
23289;DHT22;11813;50.834;4.280;2024-02-26T08:57:38;7.10;99.90
23289;DHT22;11813;50.834;4.280;2024-02-26T09:00:05;7.10;99.90
23289;DHT22;11813;50.834;4.280;2024-02-26T09:02:30;7.10;99.90
23289;DHT22;11813;50.834;4.280;2024-02-26T09:04:56;7.00;99.90
23289;DHT22;11813;50.834;4.280;2024-02-26T09:07:22;7.00;99.90
23289;DHT22;11813;50.834;4.280;2024-02-26T09:09:48;7.00;99.90
23289;DHT22;11813;50.834;4.280;2024-02-26T09:12:13;7.00;99.90
23289;DHT22;11813;50.834;4.280;2024-02-26T09:14:39;7.10;99.90
23289;DHT22;11813;50.834;4.280;2024-02-26T09:17:04;7.10;99.90
23289;DHT22;11813;50.834;4.280;2024-02-26T09:19:31;7.00;99.90
23289;DHT22;11813;50.834;4.280;2024-02-26T09:21:56;7.00;99.90
23289;DHT22;11813;50.834;4.280;2024-02-26T09:24:26;7.00;99.90
23289;DHT22;11813;50.834;4.280;2024-02-26T09:26:52;7.10;99.90
23289;DHT22;11813;50.834;4.280;2024-02-26T09:29:17;7.10;99.90
23289;DHT22;11813;50.834;4.280;2024-02-26T09:31:43;7.00;99.90
23289;DHT22;11813;50.834;4.280;2024-02-26T09:34:12;6.90;99.90
23289;DHT22;11813;50.834;4.280;2024-02-26T09:36:38;7.00;99.90
23289;DHT22;11813;50.834;4.280;2024-02-26T09:39:03;7.00;99.90
23289;DHT22;11813;50.834;4.280;2024-02-26T09:41:30;7.00;99.90
23289;DHT22;11813;50.834;4.280;2024-02-26T09:43:57;7.00;99.90
23289;DHT22;11813;50.834;4.280;2024-02-26T09:46:25;7.10;99.90
23289;DHT22;11813;50.834;4.280;2024-02-26T09:48:51;6.90;99.90
23289;DHT22;11813;50.834;4.280;2024-02-26T09:51:17;7.00;99.90
23289;DHT22;11813;50.834;4.280;2024-02-26T09:53:44;7.00;99.90
23289;DHT22;11813;50.834;4.280;2024-02-26T09:56:12;7.00;99.90
23289;DHT22;11813;50.834;4.280;2024-02-26T09:58:39;7.00;99.90
23289;DHT22;11813;50.834;4.280;2024-02-26T10:01:11;7.00;99.90
23289;DHT22;11813;50.834;4.280;2024-02-26T10:03:41;7.00;99.90
23289;DHT22;11813;50.834;4.280;2024-02-26T10:06:08;7.00;99.90
23289;DHT22;11813;50.834;4.280;2024-02-26T10:08:35;7.00;99.90
23289;DHT22;11813;50.834;4.280;2024-02-26T10:11:03;7.00;99.90
23289;DHT22;11813;50.834;4.280;2024-02-26T10:13:28;7.10;99.90
23289;DHT22;11813;50.834;4.280;2024-02-26T10:15:54;7.10;99.90
23289;DHT22;11813;50.834;4.280;2024-02-26T10:18:19;7.10;99.90
23289;DHT22;11813;50.834;4.280;2024-02-26T10:21:01;7.10;99.90
23289;DHT22;11813;50.834;4.280;2024-02-26T10:23:27;7.10;99.90
23289;DHT22;11813;50.834;4.280;2024-02-26T10:25:56;7.10;99.90
23289;DHT22;11813;50.834;4.280;2024-02-26T10:28:22;7.00;99.90
23289;DHT22;11813;50.834;4.280;2024-02-26T10:30:48;7.10;99.90
23289;DHT22;11813;50.834;4.280;2024-02-26T10:33:13;7.10;99.90
23289;DHT22;11813;50.834;4.280;2024-02-26T10:35:44;7.20;99.90
23289;DHT22;11813;50.834;4.280;2024-02-26T10:38:10;7.20;99.90
23289;DHT22;11813;50.834;4.280;2024-02-26T10:40:37;7.10;99.90
23289;DHT22;11813;50.834;4.280;2024-02-26T10:43:02;7.10;99.90
23289;DHT22;11813;50.834;4.280;2024-02-26T10:45:28;7.00;99.90
23289;DHT22;11813;50.834;4.280;2024-02-26T10:47:54;7.00;99.90
23289;DHT22;11813;50.834;4.280;2024-02-26T10:50:20;7.00;99.90
23289;DHT22;11813;50.834;4.280;2024-02-26T10:52:45;7.10;99.90
23289;DHT22;11813;50.834;4.280;2024-02-26T10:55:15;7.10;99.90
23289;DHT22;11813;50.834;4.280;2024-02-26T10:57:44;7.10;99.90
23289;DHT22;11813;50.834;4.280;2024-02-26T11:00:13;7.10;99.90
23289;DHT22;11813;50.834;4.280;2024-02-26T11:02:40;7.20;99.90
23289;DHT22;11813;50.834;4.280;2024-02-26T11:05:06;7.20;99.90
23289;DHT22;11813;50.834;4.280;2024-02-26T11:07:36;7.00;99.90
23289;DHT22;11813;50.834;4.280;2024-02-26T11:10:03;7.10;99.90
23289;DHT22;11813;50.834;4.280;2024-02-26T11:12:31;7.10;99.90
23289;DHT22;11813;50.834;4.280;2024-02-26T11:14:57;7.10;99.90
23289;DHT22;11813;50.834;4.280;2024-02-26T11:17:26;7.20;99.90
23289;DHT22;11813;50.834;4.280;2024-02-26T11:19:56;7.20;99.90
23289;DHT22;11813;50.834;4.280;2024-02-26T11:22:26;7.00;99.90
23289;DHT22;11813;50.834;4.280;2024-02-26T11:24:53;7.00;99.90
23289;DHT22;11813;50.834;4.280;2024-02-26T11:27:23;7.00;99.90
23289;DHT22;11813;50.834;4.280;2024-02-26T11:29:51;6.90;99.90
23289;DHT22;11813;50.834;4.280;2024-02-26T11:32:18;7.00;99.90
23289;DHT22;11813;50.834;4.280;2024-02-26T11:34:44;7.00;99.90
23289;DHT22;11813;50.834;4.280;2024-02-26T11:37:19;6.90;99.90
23289;DHT22;11813;50.834;4.280;2024-02-26T11:39:46;6.80;99.90
23289;DHT22;11813;50.834;4.280;2024-02-26T11:42:16;6.70;99.90
23289;DHT22;11813;50.834;4.280;2024-02-26T11:44:41;6.70;99.90
23289;DHT22;11813;50.834;4.280;2024-02-26T11:47:21;6.70;99.90
23289;DHT22;11813;50.834;4.280;2024-02-26T11:49:47;6.90;99.90
23289;DHT22;11813;50.834;4.280;2024-02-26T11:52:13;6.80;99.90
23289;DHT22;11813;50.834;4.280;2024-02-26T11:59:46;7.00;99.90
23289;DHT22;11813;50.834;4.280;2024-02-26T12:02:11;7.20;99.90
23289;DHT22;11813;50.834;4.280;2024-02-26T12:04:38;7.20;99.90
23289;DHT22;11813;50.834;4.280;2024-02-26T12:07:04;7.10;99.90
23289;DHT22;11813;50.834;4.280;2024-02-26T12:09:38;7.10;99.90
23289;DHT22;11813;50.834;4.280;2024-02-26T12:12:05;7.20;99.90
23289;DHT22;11813;50.834;4.280;2024-02-26T12:14:39;7.30;99.90
23289;DHT22;11813;50.834;4.280;2024-02-26T12:17:05;7.30;99.90
23289;DHT22;11813;50.834;4.280;2024-02-26T12:19:34;7.20;99.90
23289;DHT22;11813;50.834;4.280;2024-02-26T12:22:00;7.20;99.90
23289;DHT22;11813;50.834;4.280;2024-02-26T12:24:26;7.20;99.90
23289;DHT22;11813;50.834;4.280;2024-02-26T12:26:52;7.10;99.90
23289;DHT22;11813;50.834;4.280;2024-02-26T12:29:17;7.00;99.90
23289;DHT22;11813;50.834;4.280;2024-02-26T12:31:43;7.10;99.90
23289;DHT22;11813;50.834;4.280;2024-02-26T12:34:09;7.20;99.90
23289;DHT22;11813;50.834;4.280;2024-02-26T12:36:35;7.20;99.90
23289;DHT22;11813;50.834;4.280;2024-02-26T12:39:05;7.20;99.90
23289;DHT22;11813;50.834;4.280;2024-02-26T12:41:35;7.20;99.90
23289;DHT22;11813;50.834;4.280;2024-02-26T12:44:01;7.20;99.90
23289;DHT22;11813;50.834;4.280;2024-02-26T12:46:27;7.20;99.90
23289;DHT22;11813;50.834;4.280;2024-02-26T12:48:55;7.30;99.90
23289;DHT22;11813;50.834;4.280;2024-02-26T12:51:23;7.50;99.90
23289;DHT22;11813;50.834;4.280;2024-02-26T12:53:50;7.50;99.90
23289;DHT22;11813;50.834;4.280;2024-02-26T12:56:18;7.30;99.90
23289;DHT22;11813;50.834;4.280;2024-02-26T12:58:44;7.20;99.90
23289;DHT22;11813;50.834;4.280;2024-02-26T13:01:15;7.20;99.90
23289;DHT22;11813;50.834;4.280;2024-02-26T13:03:42;7.20;99.90
23289;DHT22;11813;50.834;4.280;2024-02-26T13:06:09;7.30;99.90
23289;DHT22;11813;50.834;4.280;2024-02-26T13:08:34;7.30;99.90
23289;DHT22;11813;50.834;4.280;2024-02-26T13:11:00;7.20;99.90
23289;DHT22;11813;50.834;4.280;2024-02-26T13:13:26;7.30;99.90
23289;DHT22;11813;50.834;4.280;2024-02-26T13:16:09;7.30;99.90
23289;DHT22;11813;50.834;4.280;2024-02-26T13:18:35;7.40;99.90
23289;DHT22;11813;50.834;4.280;2024-02-26T13:21:12;7.30;99.90
23289;DHT22;11813;50.834;4.280;2024-02-26T13:23:39;7.20;99.90
23289;DHT22;11813;50.834;4.280;2024-02-26T13:26:05;7.20;99.90
23289;DHT22;11813;50.834;4.280;2024-02-26T13:28:31;7.20;99.90
23289;DHT22;11813;50.834;4.280;2024-02-26T13:30:58;7.20;99.90
23289;DHT22;11813;50.834;4.280;2024-02-26T13:33:26;7.10;99.90
23289;DHT22;11813;50.834;4.280;2024-02-26T13:35:53;7.10;99.90
23289;DHT22;11813;50.834;4.280;2024-02-26T13:38:18;7.00;99.90
23289;DHT22;11813;50.834;4.280;2024-02-26T13:40:44;7.00;99.90
23289;DHT22;11813;50.834;4.280;2024-02-26T13:43:10;6.80;99.90
23289;DHT22;11813;50.834;4.280;2024-02-26T13:45:37;6.80;99.90
23289;DHT22;11813;50.834;4.280;2024-02-26T13:48:05;6.90;99.90
23289;DHT22;11813;50.834;4.280;2024-02-26T13:50:30;6.90;99.90
23289;DHT22;11813;50.834;4.280;2024-02-26T13:52:56;7.00;99.90
23289;DHT22;11813;50.834;4.280;2024-02-26T13:55:25;7.00;99.90
23289;DHT22;11813;50.834;4.280;2024-02-26T13:57:56;6.90;99.90
23289;DHT22;11813;50.834;4.280;2024-02-26T14:00:22;6.90;99.90
23289;DHT22;11813;50.834;4.280;2024-02-26T14:02:48;6.90;99.90
23289;DHT22;11813;50.834;4.280;2024-02-26T14:05:14;6.80;99.90
23289;DHT22;11813;50.834;4.280;2024-02-26T14:07:40;6.80;99.90
23289;DHT22;11813;50.834;4.280;2024-02-26T14:10:06;6.80;99.90
23289;DHT22;11813;50.834;4.280;2024-02-26T14:12:32;6.90;99.90
23289;DHT22;11813;50.834;4.280;2024-02-26T14:14:58;6.80;99.90
23289;DHT22;11813;50.834;4.280;2024-02-26T14:17:26;6.90;99.90
23289;DHT22;11813;50.834;4.280;2024-02-26T14:19:52;6.90;99.90
23289;DHT22;11813;50.834;4.280;2024-02-26T14:22:17;6.90;99.90
23289;DHT22;11813;50.834;4.280;2024-02-26T14:24:43;6.90;99.90
23289;DHT22;11813;50.834;4.280;2024-02-26T14:27:10;7.00;99.90
23289;DHT22;11813;50.834;4.280;2024-02-26T14:29:37;6.80;99.90
23289;DHT22;11813;50.834;4.280;2024-02-26T14:32:05;6.80;99.90
23289;DHT22;11813;50.834;4.280;2024-02-26T14:34:30;6.90;99.90
23289;DHT22;11813;50.834;4.280;2024-02-26T14:36:56;7.00;99.90
23289;DHT22;11813;50.834;4.280;2024-02-26T14:39:22;7.00;99.90
23289;DHT22;11813;50.834;4.280;2024-02-26T14:41:47;7.00;99.90
23289;DHT22;11813;50.834;4.280;2024-02-26T14:44:13;7.10;99.90
23289;DHT22;11813;50.834;4.280;2024-02-26T14:46:38;7.00;99.90
23289;DHT22;11813;50.834;4.280;2024-02-26T14:49:05;7.10;99.90
23289;DHT22;11813;50.834;4.280;2024-02-26T14:51:31;7.00;99.90
23289;DHT22;11813;50.834;4.280;2024-02-26T14:53:56;7.10;99.90
23289;DHT22;11813;50.834;4.280;2024-02-26T14:56:24;7.10;99.90
23289;DHT22;11813;50.834;4.280;2024-02-26T14:58:50;7.00;99.90
23289;DHT22;11813;50.834;4.280;2024-02-26T15:01:15;7.00;99.90
23289;DHT22;11813;50.834;4.280;2024-02-26T15:03:41;7.00;99.90
23289;DHT22;11813;50.834;4.280;2024-02-26T15:06:06;7.10;99.90
23289;DHT22;11813;50.834;4.280;2024-02-26T15:08:32;7.10;99.90
23289;DHT22;11813;50.834;4.280;2024-02-26T15:10:58;7.10;99.90
23289;DHT22;11813;50.834;4.280;2024-02-26T15:13:23;7.10;99.90
23289;DHT22;11813;50.834;4.280;2024-02-26T15:15:49;7.10;99.90
23289;DHT22;11813;50.834;4.280;2024-02-26T15:18:14;7.10;99.90
23289;DHT22;11813;50.834;4.280;2024-02-26T15:20:42;7.20;99.90
23289;DHT22;11813;50.834;4.280;2024-02-26T15:23:09;7.20;99.90
23289;DHT22;11813;50.834;4.280;2024-02-26T15:25:34;7.10;99.90
23289;DHT22;11813;50.834;4.280;2024-02-26T15:28:00;7.10;99.90
23289;DHT22;11813;50.834;4.280;2024-02-26T15:30:26;7.00;99.90
23289;DHT22;11813;50.834;4.280;2024-02-26T15:32:57;7.10;99.90
23289;DHT22;11813;50.834;4.280;2024-02-26T15:35:23;7.00;99.90
23289;DHT22;11813;50.834;4.280;2024-02-26T15:37:48;7.00;99.90
23289;DHT22;11813;50.834;4.280;2024-02-26T15:40:14;7.00;99.90
23289;DHT22;11813;50.834;4.280;2024-02-26T15:42:40;7.10;99.90
23289;DHT22;11813;50.834;4.280;2024-02-26T15:45:06;7.00;99.90